Terminal Aerodrome Forecast
Issued by NWS Mt. Holly, NJ

Home | Current Version | Previous Version | Text Only | Print | Product List | Glossary On
Versions: 1 2 3 4 5 6 7 8 9 10 11 12 13 14 15 16 17 18 19 20 21 22 23 24 25
000
FTUS41 KPHI 242342
TAFPHL
TAF
KPHL 242342Z 2500/2606 25010KT P6SM VCSH FEW070 BKN120
     FM250130 07006KT P6SM BKN100
     FM250400 27004KT P6SM SKC
     FM251400 28009KT P6SM FEW250
     FM251800 25012KT P6SM SCT250
     FM260000 23007KT P6SM SKC=

USA.gov is the U.S. government's official web portal to all federal, state and local government web resources and services.